New Orleans, Louisiana
Traffic Map
Current Weather Conditions
New Orleans, Louisiana
Clear Thunderstorm
Clear
32°
Feels Like: 39°
Wind Chill: 32° Ceiling: Unl
Heat Index: 39° Visibility: 10mi
Dew Point: 25° Wind: 9mph
Humidity: 67% Direction: 330° (NNW)
Pressure: 30.06in Gusts: 0mph
Raw Report DataKNEW 291753Z AUTO 33008KT 10SM VCTS CLR 32/25 A3006 RMK AO2 LTG DSNT SE AND SW SLP172 T03170250 10317 20278 58000
Traffic Incident Summary
Active as of:
Severity:
Category:
InformationThere was an issue retrieving the traffic information for this location. Please try a different location or try again shortly.
Advertisements
Track Severe Weather on mobile